Terminal Aerodrome Forecast
Issued by NWS

Home | Current Version | Previous Version | Text Only | Print | Product List | Glossary On
Versions: 1 2 3 4 5 6 7 8 9 10 11 12 13 14 15 16 17 18 19 20 21 22 23 24 25 26 27 28 29 30 31 32
010
FTUS41 KOKX 302110 AAB
TAFGON
TAF AMD
KGON 302110Z 3021/3118 18009KT P6SM FEW060 BKN150
     FM310500 15005KT P6SM FEW040 BKN100
     FM310800 11005KT P6SM BKN030
     FM311100 11008KT 5SM -RA BKN010
     FM311500 10010KT 2SM -RA OVC006=

USA.gov is the U.S. government's official web portal to all federal, state and local government web resources and services.